createdAt,value
2019-01-05T04:55:56.342Z,34.50
2019-01-05T04:59:15.421Z,36.83
2019-01-05T05:02:43.362Z,38.03
2019-01-05T05:05:53.303Z,34.80
2019-01-05T05:09:09.896Z,38.27
2019-01-05T05:12:10.983Z,36.40
2019-01-05T05:15:11.698Z,39.53
2019-01-05T05:18:18.991Z,37.53
2019-01-05T05:21:26.690Z,44.03
2019-01-05T05:24:30.798Z,39.40
2019-01-05T05:27:38.430Z,38.90
2019-01-05T05:30:40.365Z,39.40
2019-01-05T05:33:53.985Z,37.43
2019-01-05T05:37:20.234Z,37.63
2019-01-05T05:40:22.999Z,39.07
2019-01-05T05:43:31.115Z,34.90
2019-01-05T05:46:39.257Z,35.60
2019-01-05T05:49:51.398Z,36.53
2019-01-05T05:52:58.795Z,38.40
2019-01-05T05:56:04.452Z,37.50
2019-01-05T05:59:30.552Z,35.30
2019-01-05T06:02:38.241Z,37.07
2019-01-05T06:05:45.496Z,38.63
2019-01-05T06:08:48.487Z,38.10
2019-01-05T06:11:59.481Z,36.40
2019-01-05T06:15:02.776Z,34.23
2019-01-05T06:18:06.161Z,36.00
2019-01-05T06:21:16.971Z,40.43
2019-01-05T06:24:31.625Z,37.73
2019-01-05T06:27:33.294Z,40.07
2019-01-05T06:30:36.801Z,39.40
2019-01-05T06:33:40.529Z,38.20
2019-01-05T06:36:51.189Z,36.40
2019-01-05T06:40:07.435Z,36.17
2019-01-05T06:43:22.256Z,38.57
2019-01-05T06:46:29.070Z,37.10
2019-01-05T06:49:48.985Z,35.77
2019-01-05T06:52:51.666Z,38.27
2019-01-05T06:56:27.534Z,35.23
2019-01-05T06:59:47.674Z,36.83
2019-01-05T07:03:04.956Z,39.90
2019-01-05T07:06:08.627Z,32.70
2019-01-05T07:09:29.412Z,37.67
2019-01-05T07:12:37.216Z,31.30
2019-01-05T07:15:49.923Z,30.23
2019-01-05T07:18:53.022Z,30.90
2019-01-05T07:22:11.160Z,31.30
2019-01-05T07:25:25.403Z,30.90
2019-01-05T07:28:28.361Z,26.87
2019-01-05T07:31:24.370Z,33.87
2019-01-05T07:34:57.139Z,32.53
2019-01-05T07:38:11.119Z,30.90
2019-01-05T07:41:15.522Z,27.70
2019-01-05T07:44:30.830Z,27.73
2019-01-05T07:47:42.193Z,27.37
2019-01-05T07:50:55.009Z,26.33
2019-01-05T07:53:50.974Z,28.47
2019-01-05T07:57:04.330Z,29.67
2019-01-05T08:00:14.746Z,23.77
2019-01-05T08:03:16.364Z,27.43
2019-01-05T08:06:26.560Z,25.50
2019-01-05T08:09:31.516Z,23.70
2019-01-05T08:12:50.423Z,25.00
2019-01-05T08:15:59.176Z,20.90
2019-01-05T08:19:25.939Z,20.00
2019-01-05T08:22:30.608Z,23.27
2019-01-05T08:25:34.230Z,21.57
2019-01-05T08:28:30.340Z,23.03
2019-01-05T08:31:51.206Z,20.40
2019-01-05T08:34:54.263Z,20.10
2019-01-05T08:38:05.272Z,21.53
2019-01-05T08:41:09.920Z,21.37
2019-01-05T08:44:14.272Z,22.50
2019-01-05T08:47:35.067Z,21.07
2019-01-05T08:50:45.513Z,20.47
2019-01-05T08:54:03.310Z,20.53
2019-01-05T08:57:06.493Z,19.67
2019-01-05T09:00:26.269Z,23.20
2019-01-05T09:03:30.014Z,21.27
2019-01-05T09:07:02.781Z,20.80
2019-01-05T09:10:03.041Z,18.17
2019-01-05T09:13:32.765Z,20.07
2019-01-05T09:16:42.867Z,19.07
2019-01-05T09:20:12.635Z,18.37
2019-01-05T09:23:21.767Z,16.90
2019-01-05T09:26:26.864Z,21.57
2019-01-05T09:29:23.624Z,17.67
2019-01-05T09:32:28.279Z,17.77
2019-01-05T09:35:36.901Z,17.33
2019-01-05T09:38:55.775Z,19.87
2019-01-05T09:42:01.959Z,18.20
2019-01-05T09:45:15.120Z,14.83
2019-01-05T09:48:19.766Z,20.23
2019-01-05T09:51:39.434Z,17.17
2019-01-05T09:55:02.584Z,15.17
2019-01-05T09:58:05.554Z,17.97
2019-01-05T10:01:12.879Z,17.07
2019-01-05T10:04:11.668Z,17.70
2019-01-05T10:07:15.854Z,16.07
2019-01-05T10:10:28.295Z,16.13
2019-01-05T10:13:29.363Z,18.07
2019-01-05T10:16:49.006Z,18.00
2019-01-05T10:19:56.822Z,15.70
2019-01-05T10:23:08.910Z,13.10
2019-01-05T10:26:15.470Z,15.53
2019-01-05T10:29:32.316Z,15.83
2019-01-05T10:32:35.371Z,15.50
2019-01-05T10:35:52.888Z,12.57
2019-01-05T10:39:13.528Z,13.83
2019-01-05T10:42:29.650Z,15.23
2019-01-05T10:45:40.306Z,11.57
2019-01-05T10:48:56.784Z,14.77
2019-01-05T10:52:00.177Z,14.40
2019-01-05T10:55:03.311Z,12.40
2019-01-05T10:58:06.557Z,11.57
2019-01-05T11:01:21.248Z,13.10
2019-01-05T11:04:42.216Z,12.60
2019-01-05T11:07:53.956Z,11.57
2019-01-05T11:10:57.505Z,12.47
2019-01-05T11:14:04.082Z,12.60
2019-01-05T11:17:07.076Z,12.43
2019-01-05T11:20:18.655Z,14.43
2019-01-05T11:23:38.193Z,13.93
2019-01-05T11:26:41.450Z,11.10
2019-01-05T11:29:51.112Z,13.97
2019-01-05T11:32:55.754Z,12.07
2019-01-05T11:36:13.204Z,10.90
2019-01-05T11:39:26.038Z,11.63
2019-01-05T11:42:36.586Z,12.73
2019-01-05T11:45:52.250Z,10.03
2019-01-05T11:49:02.828Z,13.17
2019-01-05T11:52:06.469Z,14.17
2019-01-05T11:55:10.790Z,11.00
2019-01-05T11:58:27.214Z,15.77
2019-01-05T12:01:38.024Z,14.73
2019-01-05T12:05:07.681Z,13.10
2019-01-05T12:08:15.703Z,15.93
2019-01-05T12:11:11.204Z,11.90
2019-01-05T12:14:26.666Z,15.17
2019-01-05T12:17:34.277Z,13.47
2019-01-05T12:20:54.254Z,16.70
2019-01-05T12:23:59.659Z,14.50
2019-01-05T12:27:08.160Z,16.10
2019-01-05T12:30:12.676Z,13.73
2019-01-05T12:33:27.799Z,15.03
2019-01-05T12:36:46.907Z,16.73
2019-01-05T12:40:01.990Z,13.87
2019-01-05T12:43:13.762Z,15.97
2019-01-05T12:46:10.271Z,16.00
2019-01-05T12:49:16.304Z,18.70
2019-01-05T12:52:20.285Z,14.40
2019-01-05T12:55:14.185Z,14.57
2019-01-05T12:58:30.958Z,13.57
2019-01-05T13:01:44.144Z,14.20
2019-01-05T13:04:48.644Z,12.60
2019-01-05T13:08:01.472Z,16.00
2019-01-05T13:11:22.107Z,10.43
2019-01-05T13:14:38.493Z,13.83
2019-01-05T13:17:40.317Z,13.70
2019-01-05T13:20:47.637Z,11.73
2019-01-05T13:24:10.402Z,11.20
2019-01-05T13:27:18.485Z,12.97
2019-01-05T13:30:26.111Z,14.60
2019-01-05T13:33:29.193Z,10.47
2019-01-05T13:36:42.409Z,14.17
2019-01-05T13:39:50.019Z,14.47
2019-01-05T13:42:45.671Z,12.47
2019-01-05T13:45:49.421Z,11.67
2019-01-05T13:48:59.070Z,11.90
2019-01-05T13:52:01.668Z,12.87
2019-01-05T13:54:41.123Z,12.97
2019-01-05T13:57:28.417Z,15.83
2019-01-05T14:00:21.304Z,13.87
2019-01-05T14:03:08.177Z,14.40
2019-01-05T14:05:55.245Z,13.30
2019-01-05T14:08:37.809Z,14.87
2019-01-05T14:11:23.235Z,13.20
2019-01-05T14:14:28.349Z,14.27
2019-01-05T14:17:27.167Z,13.50
2019-01-05T14:20:12.951Z,14.73
2019-01-05T14:23:05.832Z,14.07
2019-01-05T14:25:53.830Z,14.10
2019-01-05T14:28:49.748Z,12.87
2019-01-05T14:31:44.489Z,15.03
2019-01-05T14:34:25.746Z,14.63
2019-01-05T14:37:30.644Z,14.67
2019-01-05T14:40:10.111Z,12.97
2019-01-05T14:42:55.457Z,12.60
2019-01-05T14:45:40.968Z,13.03
2019-01-05T14:48:33.859Z,14.70
2019-01-05T14:51:19.206Z,13.10
2019-01-05T14:54:04.815Z,16.17
2019-01-05T14:56:54.879Z,14.07
2019-01-05T14:59:41.949Z,13.60
2019-01-05T15:02:35.017Z,10.93
2019-01-05T15:05:20.534Z,13.33
2019-01-05T15:08:06.743Z,12.27
2019-01-05T15:10:53.678Z,14.40
2019-01-05T15:13:39.028Z,13.90
2019-01-05T15:16:38.070Z,15.60
2019-01-05T15:19:43.028Z,13.23
2019-01-05T15:22:25.966Z,12.70
2019-01-05T15:25:11.202Z,12.87
2019-01-05T15:27:57.096Z,15.93
2019-01-05T15:30:47.483Z,14.07
2019-01-05T15:33:39.865Z,14.50
2019-01-05T15:36:32.598Z,15.00
2019-01-05T15:39:34.708Z,14.93
2019-01-05T15:42:27.628Z,16.10
2019-01-05T15:45:12.965Z,17.10
2019-01-05T15:47:58.550Z,15.23
2019-01-05T15:50:44.566Z,18.33
2019-01-05T15:53:30.192Z,14.50
2019-01-05T15:56:22.926Z,15.33
2019-01-05T15:59:08.582Z,16.53
2019-01-05T16:02:10.482Z,16.87
2019-01-05T16:05:17.001Z,20.03
2019-01-05T16:08:02.462Z,15.43
2019-01-05T16:10:47.528Z,14.80
2019-01-05T16:13:37.081Z,13.93
2019-01-05T16:16:32.997Z,16.70
2019-01-05T16:19:22.921Z,16.87
2019-01-05T16:22:09.854Z,16.43
2019-01-05T16:25:05.939Z,18.47
2019-01-05T16:27:51.371Z,14.07
2019-01-05T16:30:34.540Z,19.30
2019-01-05T16:33:22.883Z,14.10
2019-01-05T16:36:26.189Z,16.40
2019-01-05T16:39:11.815Z,18.13
2019-01-05T16:42:16.647Z,16.43
2019-01-05T16:45:09.486Z,18.90
2019-01-05T16:48:05.328Z,16.43
2019-01-05T16:50:51.164Z,17.07
2019-01-05T16:53:38.157Z,18.20
2019-01-05T16:56:43.248Z,17.13
2019-01-05T16:59:32.986Z,20.30
2019-01-05T17:02:19.587Z,18.20
2019-01-05T17:05:12.515Z,17.17
2019-01-05T17:08:06.280Z,18.03
2019-01-05T17:11:06.209Z,15.10
2019-01-05T17:14:00.411Z,17.07
2019-01-05T17:16:56.506Z,17.27
2019-01-05T17:19:52.524Z,16.40
2019-01-05T17:22:40.281Z,19.17
2019-01-05T17:25:36.304Z,14.47
2019-01-05T17:28:26.321Z,17.67
2019-01-05T17:31:16.329Z,18.73
2019-01-05T17:34:05.816Z,16.03
2019-01-05T17:36:53.568Z,16.60
2019-01-05T17:39:38.809Z,17.90
2019-01-05T17:42:37.784Z,16.20
2019-01-05T17:45:16.284Z,18.70
2019-01-05T17:48:18.140Z,21.40
2019-01-05T17:51:06.851Z,16.93
2019-01-05T17:53:53.709Z,15.90
2019-01-05T17:56:39.173Z,19.17
2019-01-05T17:59:24.437Z,17.70
2019-01-05T18:02:10.014Z,18.40
2019-01-05T18:05:12.187Z,17.40
2019-01-05T18:07:57.380Z,19.53
2019-01-05T18:10:43.101Z,17.23
2019-01-05T18:13:48.193Z,21.13
2019-01-05T18:16:39.109Z,17.23
2019-01-05T18:19:24.428Z,19.20
2019-01-05T18:22:17.439Z,21.17
2019-01-05T18:25:03.119Z,17.70
2019-01-05T18:27:49.015Z,18.07
2019-01-05T18:30:54.191Z,17.13
2019-01-05T18:33:46.931Z,20.33
2019-01-05T18:36:36.903Z,23.10
2019-01-05T18:39:25.705Z,17.13
2019-01-05T18:42:08.350Z,16.20
2019-01-05T18:44:55.211Z,17.57
2019-01-05T18:47:43.854Z,15.47
2019-01-05T18:50:33.896Z,17.00
2019-01-05T18:53:17.340Z,18.07
2019-01-05T18:56:02.706Z,19.40
2019-01-05T18:58:47.991Z,16.40
2019-01-05T19:01:38.367Z,18.70
2019-01-05T19:04:30.912Z,17.43
2019-01-05T19:07:32.986Z,22.73
2019-01-05T19:10:25.940Z,20.63
2019-01-05T19:13:23.167Z,15.23
2019-01-05T19:16:16.019Z,18.97
2019-01-05T19:18:59.182Z,19.00
2019-01-05T19:22:01.210Z,18.53
2019-01-05T19:24:48.238Z,18.03
2019-01-05T19:27:44.026Z,20.57
2019-01-05T19:30:43.196Z,20.10
2019-01-05T19:33:42.679Z,21.60
2019-01-05T19:36:32.358Z,16.97
2019-01-05T19:39:17.923Z,16.40
2019-01-05T19:42:07.841Z,16.43
2019-01-05T19:45:03.775Z,17.50
2019-01-05T19:47:54.462Z,17.17
2019-01-05T19:50:33.869Z,17.67
2019-01-05T19:53:26.779Z,16.70
2019-01-05T19:56:25.537Z,20.17
2019-01-05T20:02:20.511Z,21.07
2019-01-05T20:05:13.456Z,22.37
2019-01-05T20:07:54.988Z,19.47
2019-01-05T20:10:41.919Z,17.83
2019-01-05T20:13:29.404Z,18.40
2019-01-05T20:16:13.587Z,19.87
2019-01-05T20:19:18.714Z,17.80
2019-01-05T20:22:11.775Z,18.77
2019-01-05T20:27:37.738Z,22.60
2019-01-05T20:30:31.327Z,17.00
2019-01-05T20:33:23.252Z,19.13
2019-01-05T20:39:12.277Z,20.13
2019-01-05T20:42:12.827Z,18.53
2019-01-05T20:45:01.348Z,18.80
2019-01-05T20:47:54.425Z,19.13
2019-01-05T20:50:44.712Z,17.23
2019-01-05T20:53:37.700Z,20.83
2019-01-05T20:56:24.793Z,18.70
2019-01-05T20:59:10.603Z,20.50
2019-01-05T21:01:56.251Z,17.23
2019-01-05T21:04:43.683Z,20.30
2019-01-05T21:07:29.037Z,19.77
2019-01-05T21:10:27.804Z,18.83
2019-01-05T21:13:33.153Z,17.80
2019-01-05T21:16:29.292Z,18.87
2019-01-05T21:19:15.026Z,19.10
2019-01-05T21:22:14.897Z,21.03
2019-01-05T21:25:00.295Z,18.40
2019-01-05T21:27:47.904Z,19.17
2019-01-05T21:30:40.889Z,21.60
2019-01-05T21:33:30.944Z,21.00
2019-01-05T21:36:20.636Z,17.00
2019-01-05T21:39:08.691Z,19.70
2019-01-05T21:42:01.593Z,21.03
2019-01-05T21:45:01.183Z,20.30
2019-01-05T21:47:54.294Z,19.77
2019-01-05T21:50:39.934Z,18.00
2019-01-05T21:53:24.998Z,20.53
2019-01-05T21:56:16.495Z,19.43
2019-01-05T21:59:03.450Z,18.33
2019-01-05T22:02:02.485Z,19.73
2019-01-05T22:04:48.088Z,17.80
2019-01-05T22:07:40.541Z,18.20
2019-01-05T22:10:36.296Z,18.60
2019-01-05T22:13:29.601Z,17.63
2019-01-05T22:16:25.772Z,19.30
2019-01-05T22:19:11.062Z,21.93
2019-01-05T22:22:10.215Z,16.27
2019-01-05T22:24:55.802Z,17.77
2019-01-05T22:27:41.937Z,21.07
2019-01-05T22:30:39.614Z,17.43
2019-01-05T22:33:19.024Z,21.90
2019-01-05T22:36:05.155Z,22.13
2019-01-05T22:38:50.709Z,17.47
2019-01-05T22:41:36.357Z,18.70
2019-01-05T22:44:22.240Z,18.63
2019-01-05T22:47:11.010Z,16.97
2019-01-05T22:49:55.157Z,19.63
2019-01-05T22:52:42.055Z,19.13
2019-01-05T22:55:41.033Z,17.73
2019-01-05T22:58:37.001Z,17.53
2019-01-05T23:01:22.595Z,17.87
2019-01-05T23:04:07.942Z,17.97
2019-01-05T23:07:02.125Z,18.57
2019-01-05T23:10:00.271Z,16.20
2019-01-05T23:12:46.074Z,16.53
2019-01-05T23:15:35.728Z,17.53
2019-01-05T23:18:21.265Z,17.70
2019-01-05T23:21:07.115Z,18.27
2019-01-05T23:24:11.000Z,16.40
2019-01-05T23:27:03.502Z,16.57
2019-01-05T23:29:48.811Z,16.37
2019-01-05T23:32:44.367Z,17.20
2019-01-05T23:35:46.460Z,17.60
2019-01-05T23:38:50.415Z,18.43
2019-01-05T23:41:35.919Z,17.20
2019-01-05T23:44:21.925Z,16.17
2019-01-05T23:47:21.294Z,15.93
2019-01-05T23:50:20.526Z,15.07
2019-01-05T23:53:06.065Z,20.53
2019-01-05T23:56:01.712Z,14.53
2019-01-05T23:59:01.055Z,15.70
